< < Back
Terminal Aerodrome Forecast


Current Version              Previous Versions:   1  2  3  4  5  6  7  8  9  

Terminal Aerodrome Forecast

326
FTUS42 KTAE 021733
TAFVLD
TAF
KVLD 021733Z 0218/0318 00000KT P6SM VCSH BKN045
     FM030000 00000KT P6SM BKN250
     FM030900 00000KT 2SM BR BKN003
     FM031300 36003KT P6SM SCT250=

Latest METAR

643
SAUS70 KWBC 031900 RRL
MTRVLD
METAR KVLD 031853Z 00000KT 10SM SCT040 33/23 A2995 RMK AO2 SLP146
T03330228


USA.gov is the U.S. government's official web portal to all federal, state and local government web resources and services.